SWR477L LSZH-EIDW
Flight info
| Callsign | SWR477L |
|---|---|
| Flight time | N/A |
| Altitude | 36000 |
| Route | VEBIT T10 TORPA DCT REKLA DCT RLP DCT ROTSI DCT KOTUN DCT AMAXA DCT VESAN DCT RATUK DCT SOVAT DCT OKSAW DCT TEWXI DCT LANON L18 ABLIN ABLIN4L |
| Aircraft | A320/M-SDE3FGHIRWY/LB1 |
Departure
| Time | N/A |
|---|---|
| Airport | Zürich Airport (LSZH) |
Arrival
| Time | 2026-05-04 09:51 |
|---|---|
| Airport | Dublin Airport (EIDW) |
| Time | Latitude | Longitude | Altitude | Speed | Heading |
|---|---|---|---|---|---|
| 2026-05-04 08:04 | 47.34363 | 7.44969 | 22094 ft | 414 kts | 284° |
| 2026-05-04 08:04 | 47.35246 | 7.40878 | 22401 ft | 422 kts | 284° |
| 2026-05-04 08:04 | 47.36141 | 7.36730 | 22743 ft | 428 kts | 285° |
| 2026-05-04 08:05 | 47.37047 | 7.32520 | 23113 ft | 433 kts | 285° |
| 2026-05-04 08:05 | 47.37962 | 7.28271 | 23556 ft | 435 kts | 284° |
| 2026-05-04 08:05 | 47.38879 | 7.24003 | 23997 ft | 438 kts | 284° |
| 2026-05-04 08:05 | 47.39796 | 7.19719 | 24344 ft | 442 kts | 285° |
| 2026-05-04 08:06 | 47.40698 | 7.15406 | 24613 ft | 447 kts | 283° |
| 2026-05-04 08:06 | 47.41391 | 7.10839 | 24916 ft | 451 kts | 281° |
| 2026-05-04 08:06 | 47.42050 | 7.06343 | 25233 ft | 455 kts | 281° |
| 2026-05-04 08:06 | 47.42727 | 7.01767 | 25575 ft | 458 kts | 281° |
| 2026-05-04 08:08 | 47.47498 | 6.68938 | 27973 ft | 471 kts | 285° |
| 2026-05-04 08:08 | 47.48075 | 6.64156 | 28298 ft | 474 kts | 279° |
| 2026-05-04 08:10 | 47.50831 | 6.25462 | 30641 ft | 479 kts | 280° |
| 2026-05-04 08:11 | 47.51170 | 6.20556 | 30899 ft | 479 kts | 280° |
| 2026-05-04 08:11 | 47.51840 | 6.10752 | 31502 ft | 478 kts | 280° |
| 2026-05-04 08:11 | 47.52171 | 6.05862 | 31798 ft | 478 kts | 279° |
| 2026-05-04 08:12 | 47.52494 | 6.01017 | 32071 ft | 477 kts | 279° |
| 2026-05-04 08:12 | 47.52817 | 5.96127 | 32371 ft | 476 kts | 279° |
| 2026-05-04 08:12 | 47.53297 | 5.91294 | 32661 ft | 470 kts | 288° |
| 2026-05-04 08:12 | 47.54268 | 5.86725 | 32931 ft | 463 kts | 297° |
| 2026-05-04 08:13 | 47.55707 | 5.82497 | 33200 ft | 456 kts | 307° |
| 2026-05-04 08:13 | 47.57542 | 5.78705 | 33460 ft | 450 kts | 316° |
| 2026-05-04 08:13 | 47.59643 | 5.75293 | 33717 ft | 447 kts | 318° |
| 2026-05-04 08:13 | 47.61754 | 5.71913 | 33974 ft | 447 kts | 318° |
| 2026-05-04 08:14 | 47.63864 | 5.68519 | 34229 ft | 447 kts | 317° |
| 2026-05-04 08:14 | 47.65964 | 5.65125 | 34470 ft | 446 kts | 317° |
| 2026-05-04 08:14 | 47.67350 | 5.62881 | 34622 ft | 446 kts | 317° |
| 2026-05-04 08:16 | 47.81946 | 5.39151 | 35754 ft | 441 kts | 317° |
| 2026-05-04 08:16 | 47.86073 | 5.32405 | 35757 ft | 441 kts | 317° |
| 2026-05-04 08:17 | 47.90201 | 5.25638 | 35752 ft | 440 kts | 317° |
| 2026-05-04 08:17 | 47.94321 | 5.18873 | 35757 ft | 440 kts | 317° |
| 2026-05-04 08:19 | 48.10730 | 4.91731 | 35759 ft | 440 kts | 317° |
| 2026-05-04 08:20 | 48.14821 | 4.84920 | 35753 ft | 440 kts | 317° |
| 2026-05-04 08:20 | 48.18918 | 4.78095 | 35754 ft | 439 kts | 317° |
| 2026-05-04 08:21 | 48.23003 | 4.71274 | 35752 ft | 439 kts | 317° |
| 2026-05-04 08:21 | 48.27074 | 4.64426 | 35756 ft | 439 kts | 317° |
| 2026-05-04 08:22 | 48.31150 | 4.57582 | 35754 ft | 439 kts | 317° |
| 2026-05-04 08:24 | 48.47382 | 4.30123 | 35752 ft | 439 kts | 316° |
| 2026-05-04 08:24 | 48.51396 | 4.23258 | 35750 ft | 439 kts | 316° |
| 2026-05-04 08:25 | 48.55445 | 4.16347 | 35750 ft | 438 kts | 316° |
| 2026-05-04 08:25 | 48.59464 | 4.09474 | 35749 ft | 439 kts | 316° |
| 2026-05-04 08:27 | 48.76247 | 3.82975 | 35745 ft | 429 kts | 329° |
| 2026-05-04 08:28 | 48.81068 | 3.77730 | 35745 ft | 429 kts | 329° |
| 2026-05-04 08:28 | 48.85922 | 3.72421 | 35743 ft | 430 kts | 329° |
| 2026-05-04 08:29 | 48.90766 | 3.67089 | 35743 ft | 430 kts | 329° |
| 2026-05-04 08:31 | 49.10138 | 3.45723 | 35747 ft | 430 kts | 329° |
| 2026-05-04 08:33 | 49.29464 | 3.24190 | 35747 ft | 430 kts | 329° |
| 2026-05-04 08:35 | 49.48771 | 3.02433 | 35746 ft | 430 kts | 329° |
| 2026-05-04 08:35 | 49.53561 | 2.97021 | 35748 ft | 430 kts | 329° |
| 2026-05-04 08:37 | 49.70403 | 2.77831 | 35746 ft | 430 kts | 328° |
| 2026-05-04 08:38 | 49.75172 | 2.72352 | 35745 ft | 430 kts | 328° |
| 2026-05-04 08:38 | 49.80001 | 2.66852 | 35744 ft | 429 kts | 329° |
| 2026-05-04 08:40 | 49.99417 | 2.45339 | 35745 ft | 429 kts | 329° |
| 2026-05-04 08:41 | 50.04262 | 2.39911 | 35744 ft | 429 kts | 329° |
| 2026-05-04 08:41 | 50.09076 | 2.34506 | 35743 ft | 429 kts | 329° |
| 2026-05-04 08:42 | 50.13923 | 2.29050 | 35743 ft | 429 kts | 329° |
| 2026-05-04 08:42 | 50.18767 | 2.23575 | 35744 ft | 429 kts | 329° |
| 2026-05-04 08:43 | 50.23600 | 2.18093 | 35744 ft | 429 kts | 329° |
| 2026-05-04 08:43 | 50.28435 | 2.12611 | 35744 ft | 429 kts | 329° |
| 2026-05-04 08:44 | 50.33240 | 2.07158 | 35743 ft | 429 kts | 329° |
| 2026-05-04 08:46 | 50.51630 | 1.82933 | 35744 ft | 432 kts | 323° |
| 2026-05-04 08:46 | 50.56168 | 1.76693 | 35744 ft | 432 kts | 324° |
| 2026-05-04 08:47 | 50.60712 | 1.70491 | 35742 ft | 432 kts | 324° |
| 2026-05-04 08:47 | 50.65228 | 1.64297 | 35743 ft | 432 kts | 324° |
| 2026-05-04 08:48 | 50.69756 | 1.58042 | 35743 ft | 432 kts | 324° |
| 2026-05-04 08:48 | 50.74271 | 1.51773 | 35744 ft | 432 kts | 324° |
| 2026-05-04 08:49 | 50.78362 | 1.44814 | 35743 ft | 442 kts | 308° |
| 2026-05-04 08:50 | 50.88085 | 1.14042 | 35740 ft | 447 kts | 301° |
| 2026-05-04 08:51 | 50.90828 | 1.05173 | 35740 ft | 447 kts | 301° |
| 2026-05-04 08:51 | 50.93556 | 0.96286 | 35741 ft | 448 kts | 301° |
| 2026-05-04 08:52 | 50.96234 | 0.87504 | 35740 ft | 448 kts | 301° |
| 2026-05-04 08:52 | 50.98494 | 0.80094 | 35742 ft | 447 kts | 301° |
| 2026-05-04 08:54 | 51.09281 | 0.44451 | 35739 ft | 448 kts | 300° |
| 2026-05-04 08:55 | 51.11956 | 0.35498 | 35739 ft | 448 kts | 300° |
| 2026-05-04 08:55 | 51.14633 | 0.26535 | 35739 ft | 448 kts | 300° |
| 2026-05-04 09:01 | 51.42316 | -0.68233 | 35743 ft | 448 kts | 300° |
| 2026-05-04 09:01 | 51.44912 | -0.77330 | 35742 ft | 448 kts | 300° |
| 2026-05-04 09:02 | 51.47498 | -0.86424 | 35742 ft | 448 kts | 299° |
| 2026-05-04 09:02 | 51.50049 | -0.95417 | 35741 ft | 448 kts | 299° |
| 2026-05-04 09:03 | 51.52610 | -1.04481 | 35740 ft | 449 kts | 299° |
| 2026-05-04 09:03 | 51.55181 | -1.13627 | 35742 ft | 449 kts | 299° |
| 2026-05-04 09:04 | 51.57748 | -1.22777 | 35743 ft | 449 kts | 299° |
| 2026-05-04 09:04 | 51.60306 | -1.31943 | 35744 ft | 449 kts | 299° |
| 2026-05-04 09:05 | 51.62854 | -1.41115 | 35744 ft | 449 kts | 299° |
| 2026-05-04 09:05 | 51.65402 | -1.50296 | 35744 ft | 449 kts | 299° |
| 2026-05-04 09:06 | 51.67945 | -1.59511 | 35743 ft | 449 kts | 299° |
| 2026-05-04 09:08 | 51.78821 | -1.95591 | 35742 ft | 447 kts | 302° |
| 2026-05-04 09:08 | 51.81582 | -2.04613 | 35741 ft | 448 kts | 300° |
| 2026-05-04 09:09 | 51.84172 | -2.13800 | 35740 ft | 450 kts | 298° |
| 2026-05-04 09:09 | 51.86651 | -2.23005 | 35744 ft | 450 kts | 298° |
| 2026-05-04 09:10 | 51.89159 | -2.32273 | 35747 ft | 449 kts | 299° |
| 2026-05-04 09:10 | 51.91703 | -2.41521 | 35747 ft | 449 kts | 299° |
| 2026-05-04 09:11 | 51.94251 | -2.50768 | 35746 ft | 449 kts | 299° |
| 2026-05-04 09:11 | 51.96778 | -2.60036 | 35745 ft | 449 kts | 298° |
| 2026-05-04 09:12 | 51.99274 | -2.69261 | 35744 ft | 449 kts | 298° |
| 2026-05-04 09:14 | 52.09274 | -3.06480 | 35742 ft | 450 kts | 298° |
| 2026-05-04 09:14 | 52.11761 | -3.15827 | 35743 ft | 450 kts | 298° |
| 2026-05-04 09:15 | 52.14223 | -3.25116 | 35740 ft | 450 kts | 298° |
| 2026-05-04 09:15 | 52.16704 | -3.34546 | 35740 ft | 450 kts | 298° |
| 2026-05-04 09:17 | 52.27736 | -3.76870 | 35739 ft | 451 kts | 298° |
| 2026-05-04 09:18 | 52.30165 | -3.86299 | 35741 ft | 451 kts | 297° |
| 2026-05-04 09:18 | 52.32593 | -3.95753 | 35747 ft | 452 kts | 297° |
| 2026-05-04 09:19 | 52.35011 | -4.05228 | 35753 ft | 451 kts | 297° |
| 2026-05-04 09:19 | 52.37422 | -4.14717 | 35751 ft | 451 kts | 297° |
| 2026-05-04 09:20 | 52.39823 | -4.24185 | 35736 ft | 452 kts | 297° |
| 2026-05-04 09:20 | 52.42241 | -4.33665 | 35733 ft | 451 kts | 301° |
| 2026-05-04 09:21 | 52.45777 | -4.41928 | 35735 ft | 438 kts | 319° |
| 2026-05-04 09:21 | 52.49979 | -4.49219 | 35734 ft | 439 kts | 318° |
| 2026-05-04 09:22 | 52.54165 | -4.56550 | 35736 ft | 440 kts | 318° |
| 2026-05-04 09:22 | 52.58347 | -4.63914 | 35740 ft | 440 kts | 318° |
| 2026-05-04 09:23 | 52.62528 | -4.71281 | 35656 ft | 441 kts | 318° |
| 2026-05-04 09:23 | 52.64608 | -4.74947 | 34708 ft | 448 kts | 318° |
| 2026-05-04 09:23 | 52.66733 | -4.78705 | 33665 ft | 446 kts | 318° |
| 2026-05-04 09:25 | 52.80882 | -5.03920 | 27059 ft | 410 kts | 318° |
| 2026-05-04 09:25 | 52.82822 | -5.07377 | 25986 ft | 412 kts | 317° |
| 2026-05-04 09:26 | 52.84774 | -5.10862 | 24925 ft | 414 kts | 316° |
| 2026-05-04 09:26 | 52.86734 | -5.14373 | 23912 ft | 415 kts | 315° |
| 2026-05-04 09:26 | 52.88689 | -5.17886 | 22967 ft | 414 kts | 313° |
| 2026-05-04 09:26 | 52.90634 | -5.21393 | 22094 ft | 411 kts | 312° |
| 2026-05-04 09:27 | 52.92557 | -5.24871 | 21296 ft | 406 kts | 311° |
| 2026-05-04 09:27 | 52.94430 | -5.28258 | 20547 ft | 400 kts | 310° |
| 2026-05-04 09:27 | 52.96302 | -5.31641 | 19818 ft | 392 kts | 309° |
| 2026-05-04 09:27 | 52.98128 | -5.34942 | 19117 ft | 385 kts | 309° |
| 2026-05-04 09:28 | 52.99914 | -5.38170 | 18500 ft | 375 kts | 308° |
| 2026-05-04 09:28 | 53.01655 | -5.41333 | 17862 ft | 366 kts | 308° |
| 2026-05-04 09:28 | 53.03356 | -5.44432 | 17351 ft | 361 kts | 308° |
| 2026-05-04 09:28 | 53.05036 | -5.47495 | 17098 ft | 353 kts | 307° |
| 2026-05-04 09:29 | 53.06482 | -5.50729 | 16715 ft | 344 kts | 295° |
| 2026-05-04 09:29 | 53.07449 | -5.54326 | 16310 ft | 338 kts | 287° |
| 2026-05-04 09:29 | 53.08310 | -5.57935 | 15977 ft | 333 kts | 288° |
| 2026-05-04 09:29 | 53.09161 | -5.61506 | 15587 ft | 331 kts | 288° |
| 2026-05-04 09:30 | 53.10005 | -5.65049 | 15161 ft | 329 kts | 288° |
| 2026-05-04 09:30 | 53.10841 | -5.68553 | 14891 ft | 322 kts | 288° |
| 2026-05-04 09:30 | 53.11365 | -5.70759 | 14549 ft | 324 kts | 289° |
| 2026-05-04 09:30 | 53.12184 | -5.74215 | 14292 ft | 317 kts | 289° |
| 2026-05-04 09:31 | 53.13000 | -5.77651 | 13881 ft | 315 kts | 289° |
| 2026-05-04 09:31 | 53.13807 | -5.81039 | 13452 ft | 313 kts | 290° |
| 2026-05-04 09:31 | 53.14637 | -5.84337 | 13119 ft | 310 kts | 292° |
| 2026-05-04 09:31 | 53.15501 | -5.87637 | 12694 ft | 308 kts | 292° |
| 2026-05-04 09:32 | 53.16362 | -5.90880 | 12266 ft | 307 kts | 293° |
| 2026-05-04 09:32 | 53.17232 | -5.94158 | 11878 ft | 304 kts | 293° |
| 2026-05-04 09:34 | 53.22830 | -6.15731 | 9513 ft | 278 kts | 295° |
| 2026-05-04 09:34 | 53.23594 | -6.18686 | 9079 ft | 279 kts | 295° |
| 2026-05-04 09:34 | 53.24396 | -6.21789 | 8564 ft | 282 kts | 296° |
| 2026-05-04 09:34 | 53.25159 | -6.24740 | 8193 ft | 280 kts | 296° |
| 2026-05-04 09:35 | 53.25928 | -6.27732 | 7832 ft | 278 kts | 295° |
| 2026-05-04 09:35 | 53.26692 | -6.30715 | 7420 ft | 278 kts | 295° |
| 2026-05-04 09:35 | 53.27442 | -6.33655 | 7187 ft | 270 kts | 295° |
| 2026-05-04 09:35 | 53.28173 | -6.36528 | 7052 ft | 259 kts | 295° |
| 2026-05-04 09:37 | 53.21794 | -6.52130 | 6754 ft | 250 kts | 240° |
| 2026-05-04 09:37 | 53.21051 | -6.54684 | 6756 ft | 247 kts | 253° |
| 2026-05-04 09:38 | 53.20457 | -6.57379 | 6756 ft | 247 kts | 253° |
| 2026-05-04 09:38 | 53.19854 | -6.60058 | 6755 ft | 247 kts | 252° |
| 2026-05-04 09:38 | 53.19248 | -6.62737 | 6755 ft | 247 kts | 252° |
| 2026-05-04 09:38 | 53.18679 | -6.65436 | 6752 ft | 245 kts | 260° |
| 2026-05-04 09:39 | 53.18519 | -6.68248 | 6755 ft | 241 kts | 277° |
| 2026-05-04 09:39 | 53.18777 | -6.70987 | 6756 ft | 239 kts | 284° |
| 2026-05-04 09:39 | 53.19078 | -6.73720 | 6756 ft | 240 kts | 283° |
| 2026-05-04 09:39 | 53.19376 | -6.76463 | 6755 ft | 240 kts | 283° |
| 2026-05-04 09:40 | 53.19673 | -6.79205 | 6756 ft | 240 kts | 283° |
| 2026-05-04 09:40 | 53.20047 | -6.81906 | 6752 ft | 237 kts | 294° |
| 2026-05-04 09:40 | 53.20834 | -6.84295 | 6755 ft | 234 kts | 310° |
| 2026-05-04 09:40 | 53.21905 | -6.86342 | 6756 ft | 234 kts | 313° |
| 2026-05-04 09:41 | 53.22980 | -6.88376 | 6756 ft | 234 kts | 313° |
| 2026-05-04 09:42 | 53.31242 | -6.83122 | 5908 ft | 238 kts | 54° |
| 2026-05-04 09:43 | 53.32164 | -6.80757 | 5706 ft | 238 kts | 54° |
| 2026-05-04 09:43 | 53.33067 | -6.78445 | 5519 ft | 237 kts | 54° |
| 2026-05-04 09:43 | 53.33978 | -6.76121 | 5323 ft | 237 kts | 54° |
| 2026-05-04 09:43 | 53.34879 | -6.73823 | 5137 ft | 237 kts | 54° |
| 2026-05-04 09:44 | 53.35825 | -6.71593 | 4942 ft | 234 kts | 44° |
| 2026-05-04 09:44 | 53.37115 | -6.69968 | 4760 ft | 229 kts | 23° |
| 2026-05-04 09:44 | 53.38712 | -6.69217 | 4584 ft | 228 kts | 4° |
| 2026-05-04 09:46 | 53.45397 | -6.59460 | 3841 ft | 241 kts | 94° |
| 2026-05-04 09:46 | 53.45236 | -6.56668 | 3558 ft | 239 kts | 93° |
| 2026-05-04 09:46 | 53.45092 | -6.53899 | 3245 ft | 235 kts | 92° |
| 2026-05-04 09:47 | 53.44953 | -6.51244 | 2939 ft | 223 kts | 93° |
| 2026-05-04 09:47 | 53.44820 | -6.48724 | 2656 ft | 212 kts | 92° |
| 2026-05-04 09:49 | 53.44084 | -6.34879 | 1076 ft | 149 kts | 92° |
| 2026-05-04 09:49 | 53.43990 | -6.33109 | 871 ft | 147 kts | 92° |
| 2026-05-04 09:49 | 53.43904 | -6.31460 | 675 ft | 146 kts | 92° |
| 2026-05-04 09:51 | 53.43462 | -6.25035 | 218 ft | 15 kts | 121° |
| 2026-05-04 09:51 | 53.43384 | -6.25028 | 211 ft | 12 kts | 242° |
| 2026-05-04 09:51 | 53.43385 | -6.25160 | 211 ft | 10 kts | 275° |
| 2026-05-04 09:51 | 53.43390 | -6.25266 | 211 ft | 9 kts | 275° |
| 2026-05-04 09:52 | 53.43396 | -6.25359 | 211 ft | 7 kts | 275° |
| 2026-05-04 09:52 | 53.43400 | -6.25436 | 211 ft | 6 kts | 275° |
| 2026-05-04 09:52 | 53.43404 | -6.25499 | 213 ft | 5 kts | 275° |
| 2026-05-04 09:52 | 53.43408 | -6.25573 | 211 ft | 9 kts | 272° |
| 2026-05-04 09:53 | 53.43382 | -6.25648 | 211 ft | 7 kts | 204° |
| 2026-05-04 09:53 | 53.43311 | -6.25619 | 211 ft | 12 kts | 154° |
| 2026-05-04 09:53 | 53.43237 | -6.25563 | 211 ft | 11 kts | 156° |
| 2026-05-04 09:53 | 53.43172 | -6.25516 | 219 ft | 9 kts | 156° |
| 2026-05-04 09:54 | 53.43101 | -6.25464 | 212 ft | 17 kts | 157° |
| 2026-05-04 09:54 | 53.43005 | -6.25396 | 219 ft | 13 kts | 157° |
| 2026-05-04 09:54 | 53.42928 | -6.25340 | 212 ft | 11 kts | 155° |
| 2026-05-04 09:54 | 53.42897 | -6.25315 | 213 ft | 0 kts | 153° |
| 2026-05-04 09:55 | 53.42848 | -6.25277 | 215 ft | 11 kts | 155° |
| 2026-05-04 09:56 | 53.42795 | -6.25202 | 211 ft | 9 kts | 118° |
| 2026-05-04 09:56 | 53.42790 | -6.25101 | 215 ft | 9 kts | 81° |
| 2026-05-04 09:56 | 53.42824 | -6.25034 | 211 ft | 7 kts | 38° |
| 2026-05-04 09:56 | 53.42856 | -6.24984 | 211 ft | 6 kts | 46° |
| 2026-05-04 09:57 | 53.42872 | -6.24935 | 211 ft | 4 kts | 95° |
| 2026-05-04 09:57 | 53.42860 | -6.24904 | 211 ft | 3 kts | 127° |
| 2026-05-04 09:57 | 53.42848 | -6.24882 | 211 ft | 2 kts | 133° |
| 2026-05-04 09:57 | 53.42840 | -6.24868 | 217 ft | 1 kts | 133° |
| 2026-05-04 09:58 | 53.42836 | -6.24861 | 211 ft | 0 kts | 133° |
| 2026-05-04 09:58 | 53.42835 | -6.24861 | 211 ft | 0 kts | 133° |
| 2026-05-04 09:58 | 53.42835 | -6.24860 | 211 ft | 0 kts | 133° |
| 2026-05-04 10:00 | 53.42835 | -6.24861 | 211 ft | 0 kts | 133° |
| 2026-05-04 10:02 | 53.42835 | -6.24860 | 211 ft | 0 kts | 133° |